Kezdőlap
METAR-TAF:

METAR-TAF

Repülőterek :

Pangnirtung, Nunavut, Kanada

földrajzi szélesség: 66-09N, földrajzi hosszúság: 065-43W, magasság: 23 m

Jelenlegi meteorológiai megfigyelések

A jelentés 2 órával és 1 perccel ezelõtt készült, 20:00 UTC
Nyugati szél 7 kt
Hőmérséklet -11°C
Páratartalom 72%
Légköri nyomás 1006 hPa
Látótávolság: 24.1 km
Derült ég

METAR: CYXP 212000Z 26007KT 15SM SKC M11/M15 A2971 RMK S0/ATR 16UCU 8/LAST STFD OBS/NEXT 221100Z SLP063

Idő: 18:01 (22:01 UTC)

Előrejelzés

A jelentés 4 órával és 23 perccel ezelõtt készült, 17:38 UTC
Az előrejelzés 21-én 18 óra UTC és 21-én 20 óra UTC között érvényes
Nyugat-délnyugati szél 6 kt
Látótávolság: 10 km
Kevés felhő 2500 lábon

TAF: CYXP 211738Z 2118/2120 25006KT P6SM FEW025 RMK NXT FCST WILL BE ISSUED AT 221245Z

Meteorológiai megfigyelések és előrejelzések több, mint 4000 repülőtéren (METAR és TAF jelentéseket).

A térképen piros és sárga pontok jelzik az elérhető meteorológiai állomásokat.

Mozgassa az egeret a pont fölött, hogy megjelenjen az állomás neve.

Azután kattintson az időjárási megfigyelések és előrejelzések megtekintéséhez.

A térkép megváltoztatása: kattintson a fekete keresztel jelölt zöld gombra ráközelítéshez, a vonallal jelölt zöld gombra távolításhoz, vagy a zöld nyilakra a szomszédos térképek eléréséhez.


METAR-TAF: